sensor_id;sensor_type;location;lat;lon;timestamp;P1;durP1;ratioP1;P2;durP2;ratioP2
1410;SDS011;700;51.906;8.404;2023-07-13T00:00:42;3.30;;;2.10;;
1410;SDS011;700;51.906;8.404;2023-07-13T00:05:43;5.10;;;2.20;;
1410;SDS011;700;51.906;8.404;2023-07-13T00:10:44;3.90;;;2.53;;
1410;SDS011;700;51.906;8.404;2023-07-13T00:15:45;2.33;;;1.93;;
1410;SDS011;700;51.906;8.404;2023-07-13T00:20:46;3.33;;;1.87;;
1410;SDS011;700;51.906;8.404;2023-07-13T00:25:47;6.63;;;2.97;;
1410;SDS011;700;51.906;8.404;2023-07-13T00:30:47;5.10;;;2.47;;
1410;SDS011;700;51.906;8.404;2023-07-13T00:35:48;4.60;;;2.33;;
1410;SDS011;700;51.906;8.404;2023-07-13T00:40:52;6.17;;;2.80;;
1410;SDS011;700;51.906;8.404;2023-07-13T00:50:55;4.80;;;2.27;;
1410;SDS011;700;51.906;8.404;2023-07-13T00:55:58;4.87;;;2.63;;
1410;SDS011;700;51.906;8.404;2023-07-13T01:01:04;5.30;;;2.57;;
1410;SDS011;700;51.906;8.404;2023-07-13T01:06:04;3.60;;;2.43;;
1410;SDS011;700;51.906;8.404;2023-07-13T01:11:05;6.30;;;2.57;;
1410;SDS011;700;51.906;8.404;2023-07-13T01:16:15;4.50;;;2.40;;
1410;SDS011;700;51.906;8.404;2023-07-13T01:21:22;3.63;;;2.40;;
1410;SDS011;700;51.906;8.404;2023-07-13T01:26:25;3.07;;;2.27;;
1410;SDS011;700;51.906;8.404;2023-07-13T01:31:26;5.03;;;2.83;;
1410;SDS011;700;51.906;8.404;2023-07-13T01:36:26;5.37;;;2.63;;
1410;SDS011;700;51.906;8.404;2023-07-13T01:41:31;7.43;;;3.70;;
1410;SDS011;700;51.906;8.404;2023-07-13T01:46:34;4.80;;;3.03;;
1410;SDS011;700;51.906;8.404;2023-07-13T01:51:35;6.93;;;2.80;;
1410;SDS011;700;51.906;8.404;2023-07-13T01:56:38;5.77;;;3.20;;
1410;SDS011;700;51.906;8.404;2023-07-13T02:01:44;5.90;;;2.67;;
1410;SDS011;700;51.906;8.404;2023-07-13T02:06:44;10.60;;;2.60;;
1410;SDS011;700;51.906;8.404;2023-07-13T02:11:45;7.20;;;2.83;;
1410;SDS011;700;51.906;8.404;2023-07-13T02:16:48;7.83;;;2.80;;
1410;SDS011;700;51.906;8.404;2023-07-13T02:21:49;5.30;;;2.80;;
1410;SDS011;700;51.906;8.404;2023-07-13T02:26:49;5.73;;;2.20;;
1410;SDS011;700;51.906;8.404;2023-07-13T02:31:50;6.60;;;2.83;;
1410;SDS011;700;51.906;8.404;2023-07-13T02:36:53;6.37;;;2.70;;
1410;SDS011;700;51.906;8.404;2023-07-13T02:41:55;5.47;;;3.10;;
1410;SDS011;700;51.906;8.404;2023-07-13T02:46:56;5.87;;;3.30;;
1410;SDS011;700;51.906;8.404;2023-07-13T02:51:59;8.63;;;3.30;;
1410;SDS011;700;51.906;8.404;2023-07-13T02:56:59;9.97;;;3.80;;
1410;SDS011;700;51.906;8.404;2023-07-13T03:02:01;4.90;;;4.00;;
1410;SDS011;700;51.906;8.404;2023-07-13T03:07:03;5.00;;;4.00;;
1410;SDS011;700;51.906;8.404;2023-07-13T03:12:04;5.20;;;3.70;;
1410;SDS011;700;51.906;8.404;2023-07-13T03:17:05;4.53;;;3.70;;
1410;SDS011;700;51.906;8.404;2023-07-13T03:22:06;6.50;;;4.10;;
1410;SDS011;700;51.906;8.404;2023-07-13T03:27:08;6.77;;;3.93;;
1410;SDS011;700;51.906;8.404;2023-07-13T03:32:09;6.83;;;4.40;;
1410;SDS011;700;51.906;8.404;2023-07-13T03:37:10;7.50;;;4.67;;
1410;SDS011;700;51.906;8.404;2023-07-13T03:42:13;6.30;;;4.40;;
1410;SDS011;700;51.906;8.404;2023-07-13T03:47:16;7.07;;;4.03;;
1410;SDS011;700;51.906;8.404;2023-07-13T03:52:19;7.03;;;4.40;;
1410;SDS011;700;51.906;8.404;2023-07-13T03:57:25;4.93;;;3.60;;
1410;SDS011;700;51.906;8.404;2023-07-13T04:02:26;5.03;;;3.43;;
1410;SDS011;700;51.906;8.404;2023-07-13T04:07:27;11.67;;;3.33;;
1410;SDS011;700;51.906;8.404;2023-07-13T04:12:27;5.67;;;3.00;;
1410;SDS011;700;51.906;8.404;2023-07-13T04:17:28;7.07;;;2.80;;
1410;SDS011;700;51.906;8.404;2023-07-13T04:22:31;8.03;;;3.20;;
1410;SDS011;700;51.906;8.404;2023-07-13T04:27:31;6.50;;;3.10;;
1410;SDS011;700;51.906;8.404;2023-07-13T04:32:32;4.73;;;2.73;;
1410;SDS011;700;51.906;8.404;2023-07-13T04:37:33;5.67;;;2.90;;
1410;SDS011;700;51.906;8.404;2023-07-13T04:42:35;9.33;;;4.70;;
1410;SDS011;700;51.906;8.404;2023-07-13T04:47:38;4.67;;;2.60;;
1410;SDS011;700;51.906;8.404;2023-07-13T04:52:38;7.07;;;2.47;;
1410;SDS011;700;51.906;8.404;2023-07-13T04:57:42;8.53;;;2.47;;
1410;SDS011;700;51.906;8.404;2023-07-13T05:02:45;5.93;;;2.37;;
1410;SDS011;700;51.906;8.404;2023-07-13T05:07:48;9.47;;;2.20;;
1410;SDS011;700;51.906;8.404;2023-07-13T05:12:49;8.10;;;2.90;;
1410;SDS011;700;51.906;8.404;2023-07-13T05:17:55;5.93;;;2.43;;
1410;SDS011;700;51.906;8.404;2023-07-13T05:22:56;3.97;;;2.10;;
1410;SDS011;700;51.906;8.404;2023-07-13T05:27:56;3.60;;;1.60;;
1410;SDS011;700;51.906;8.404;2023-07-13T05:32:59;4.67;;;1.63;;
1410;SDS011;700;51.906;8.404;2023-07-13T05:38:02;5.20;;;2.00;;
1410;SDS011;700;51.906;8.404;2023-07-13T05:43:05;5.47;;;1.77;;
1410;SDS011;700;51.906;8.404;2023-07-13T05:48:06;5.40;;;2.30;;
1410;SDS011;700;51.906;8.404;2023-07-13T05:53:06;7.17;;;3.03;;
1410;SDS011;700;51.906;8.404;2023-07-13T05:58:07;3.90;;;1.90;;
1410;SDS011;700;51.906;8.404;2023-07-13T06:03:07;12.53;;;4.87;;
1410;SDS011;700;51.906;8.404;2023-07-13T06:08:08;6.00;;;2.00;;
1410;SDS011;700;51.906;8.404;2023-07-13T06:13:11;5.70;;;2.20;;
1410;SDS011;700;51.906;8.404;2023-07-13T06:18:12;6.90;;;2.40;;
1410;SDS011;700;51.906;8.404;2023-07-13T06:23:15;4.23;;;1.80;;
1410;SDS011;700;51.906;8.404;2023-07-13T06:28:15;3.97;;;2.50;;
1410;SDS011;700;51.906;8.404;2023-07-13T06:33:16;6.23;;;2.13;;
1410;SDS011;700;51.906;8.404;2023-07-13T06:38:16;5.07;;;2.30;;
1410;SDS011;700;51.906;8.404;2023-07-13T06:43:17;8.63;;;2.60;;
1410;SDS011;700;51.906;8.404;2023-07-13T06:48:19;5.00;;;2.27;;
1410;SDS011;700;51.906;8.404;2023-07-13T06:53:20;5.67;;;2.70;;
1410;SDS011;700;51.906;8.404;2023-07-13T06:58:23;11.13;;;4.07;;
1410;SDS011;700;51.906;8.404;2023-07-13T07:03:24;5.43;;;2.33;;
1410;SDS011;700;51.906;8.404;2023-07-13T07:08:25;8.83;;;2.60;;
1410;SDS011;700;51.906;8.404;2023-07-13T07:13:26;7.13;;;2.90;;
1410;SDS011;700;51.906;8.404;2023-07-13T07:18:30;8.70;;;3.70;;
1410;SDS011;700;51.906;8.404;2023-07-13T07:23:30;9.13;;;3.40;;
1410;SDS011;700;51.906;8.404;2023-07-13T07:28:34;4.90;;;2.70;;
1410;SDS011;700;51.906;8.404;2023-07-13T07:33:34;8.33;;;3.10;;
1410;SDS011;700;51.906;8.404;2023-07-13T07:38:37;8.00;;;3.70;;
1410;SDS011;700;51.906;8.404;2023-07-13T07:43:40;6.87;;;3.20;;
1410;SDS011;700;51.906;8.404;2023-07-13T07:48:43;8.53;;;3.80;;
1410;SDS011;700;51.906;8.404;2023-07-13T07:53:46;7.37;;;3.40;;
1410;SDS011;700;51.906;8.404;2023-07-13T07:58:48;8.80;;;3.90;;
1410;SDS011;700;51.906;8.404;2023-07-13T08:03:48;6.07;;;2.93;;
1410;SDS011;700;51.906;8.404;2023-07-13T08:08:51;6.50;;;3.67;;
1410;SDS011;700;51.906;8.404;2023-07-13T08:13:54;7.90;;;3.30;;
1410;SDS011;700;51.906;8.404;2023-07-13T08:18:59;8.50;;;3.47;;
1410;SDS011;700;51.906;8.404;2023-07-13T08:24:00;9.57;;;3.13;;
1410;SDS011;700;51.906;8.404;2023-07-13T08:29:01;6.80;;;2.93;;
1410;SDS011;700;51.906;8.404;2023-07-13T08:34:04;5.33;;;3.90;;
1410;SDS011;700;51.906;8.404;2023-07-13T08:39:07;5.30;;;2.40;;
1410;SDS011;700;51.906;8.404;2023-07-13T08:44:18;5.90;;;2.60;;
1410;SDS011;700;51.906;8.404;2023-07-13T08:49:44;3.60;;;2.30;;
1410;SDS011;700;51.906;8.404;2023-07-13T08:54:45;5.70;;;2.57;;
1410;SDS011;700;51.906;8.404;2023-07-13T08:59:51;7.10;;;2.77;;
1410;SDS011;700;51.906;8.404;2023-07-13T09:20:32;4.37;;;2.53;;
1410;SDS011;700;51.906;8.404;2023-07-13T09:25:35;4.50;;;2.67;;
1410;SDS011;700;51.906;8.404;2023-07-13T09:35:40;5.43;;;3.70;;
1410;SDS011;700;51.906;8.404;2023-07-13T09:40:58;5.30;;;2.90;;
1410;SDS011;700;51.906;8.404;2023-07-13T09:46:19;7.40;;;2.73;;
1410;SDS011;700;51.906;8.404;2023-07-13T09:51:22;4.43;;;2.73;;
1410;SDS011;700;51.906;8.404;2023-07-13T09:56:23;4.23;;;2.90;;
1410;SDS011;700;51.906;8.404;2023-07-13T10:01:33;4.40;;;2.70;;
1410;SDS011;700;51.906;8.404;2023-07-13T10:06:36;5.60;;;3.00;;
1410;SDS011;700;51.906;8.404;2023-07-13T10:11:39;6.10;;;2.90;;
1410;SDS011;700;51.906;8.404;2023-07-13T10:16:46;5.30;;;2.80;;
1410;SDS011;700;51.906;8.404;2023-07-13T10:27:13;5.50;;;2.70;;
1410;SDS011;700;51.906;8.404;2023-07-13T10:32:25;5.03;;;2.33;;
1410;SDS011;700;51.906;8.404;2023-07-13T10:37:36;4.40;;;2.70;;
1410;SDS011;700;51.906;8.404;2023-07-13T10:42:46;7.47;;;2.43;;
1410;SDS011;700;51.906;8.404;2023-07-13T10:47:55;2.83;;;2.07;;
1410;SDS011;700;51.906;8.404;2023-07-13T10:53:03;2.43;;;1.87;;
1410;SDS011;700;51.906;8.404;2023-07-13T10:58:37;7.03;;;2.20;;
1410;SDS011;700;51.906;8.404;2023-07-13T11:03:47;6.20;;;2.63;;
1410;SDS011;700;51.906;8.404;2023-07-13T11:24:17;5.03;;;2.50;;
1410;SDS011;700;51.906;8.404;2023-07-13T11:34:34;6.93;;;2.90;;
1410;SDS011;700;51.906;8.404;2023-07-13T11:39:38;4.20;;;2.60;;
1410;SDS011;700;51.906;8.404;2023-07-13T11:44:52;3.37;;;2.17;;
1410;SDS011;700;51.906;8.404;2023-07-13T11:49:56;6.00;;;2.10;;
1410;SDS011;700;51.906;8.404;2023-07-13T11:55:02;2.60;;;1.90;;
1410;SDS011;700;51.906;8.404;2023-07-13T12:00:11;5.00;;;3.07;;
1410;SDS011;700;51.906;8.404;2023-07-13T12:05:15;6.17;;;3.40;;
1410;SDS011;700;51.906;8.404;2023-07-13T12:15:27;7.93;;;2.60;;
1410;SDS011;700;51.906;8.404;2023-07-13T12:20:49;4.40;;;2.53;;
1410;SDS011;700;51.906;8.404;2023-07-13T12:25:52;6.37;;;2.47;;
1410;SDS011;700;51.906;8.404;2023-07-13T12:30:54;3.33;;;2.00;;
1410;SDS011;700;51.906;8.404;2023-07-13T12:36:03;3.43;;;2.30;;
1410;SDS011;700;51.906;8.404;2023-07-13T12:41:05;5.00;;;2.50;;
1410;SDS011;700;51.906;8.404;2023-07-13T12:46:19;3.73;;;2.23;;
1410;SDS011;700;51.906;8.404;2023-07-13T12:51:26;5.60;;;2.17;;
1410;SDS011;700;51.906;8.404;2023-07-13T12:56:28;3.43;;;1.73;;
1410;SDS011;700;51.906;8.404;2023-07-13T13:01:32;2.97;;;2.10;;
1410;SDS011;700;51.906;8.404;2023-07-13T13:06:38;2.03;;;1.77;;
1410;SDS011;700;51.906;8.404;2023-07-13T13:11:43;3.00;;;1.60;;
1410;SDS011;700;51.906;8.404;2023-07-13T13:16:48;4.23;;;2.20;;
1410;SDS011;700;51.906;8.404;2023-07-13T13:21:51;2.93;;;2.30;;
1410;SDS011;700;51.906;8.404;2023-07-13T13:26:53;3.13;;;1.87;;
1410;SDS011;700;51.906;8.404;2023-07-13T13:31:56;4.80;;;2.00;;
1410;SDS011;700;51.906;8.404;2023-07-13T13:36:57;2.40;;;1.80;;
1410;SDS011;700;51.906;8.404;2023-07-13T13:41:57;3.03;;;2.13;;
1410;SDS011;700;51.906;8.404;2023-07-13T13:46:58;2.60;;;2.20;;
1410;SDS011;700;51.906;8.404;2023-07-13T13:52:01;3.60;;;2.30;;
1410;SDS011;700;51.906;8.404;2023-07-13T13:57:05;3.50;;;2.00;;
1410;SDS011;700;51.906;8.404;2023-07-13T14:02:11;5.60;;;2.10;;
1410;SDS011;700;51.906;8.404;2023-07-13T14:07:22;3.10;;;2.23;;
1410;SDS011;700;51.906;8.404;2023-07-13T14:12:26;4.70;;;2.03;;
1410;SDS011;700;51.906;8.404;2023-07-13T14:17:28;4.00;;;2.60;;
1410;SDS011;700;51.906;8.404;2023-07-13T14:22:31;5.10;;;2.83;;
1410;SDS011;700;51.906;8.404;2023-07-13T14:27:34;5.60;;;3.13;;
1410;SDS011;700;51.906;8.404;2023-07-13T14:32:34;7.23;;;3.13;;
1410;SDS011;700;51.906;8.404;2023-07-13T14:37:35;4.47;;;3.33;;
1410;SDS011;700;51.906;8.404;2023-07-13T14:42:38;4.57;;;3.50;;
1410;SDS011;700;51.906;8.404;2023-07-13T14:47:41;3.20;;;2.90;;
1410;SDS011;700;51.906;8.404;2023-07-13T14:52:45;4.90;;;2.80;;
1410;SDS011;700;51.906;8.404;2023-07-13T14:57:47;3.40;;;2.60;;
1410;SDS011;700;51.906;8.404;2023-07-13T15:02:51;3.10;;;2.20;;
1410;SDS011;700;51.906;8.404;2023-07-13T15:07:56;7.00;;;4.87;;
1410;SDS011;700;51.906;8.404;2023-07-13T15:12:59;3.93;;;3.13;;
1410;SDS011;700;51.906;8.404;2023-07-13T15:18:02;5.70;;;3.33;;
1410;SDS011;700;51.906;8.404;2023-07-13T15:23:05;3.30;;;3.00;;
1410;SDS011;700;51.906;8.404;2023-07-13T15:28:06;3.97;;;3.63;;
1410;SDS011;700;51.906;8.404;2023-07-13T15:33:24;5.53;;;4.20;;
1410;SDS011;700;51.906;8.404;2023-07-13T15:38:31;4.47;;;3.10;;
1410;SDS011;700;51.906;8.404;2023-07-13T15:43:38;4.60;;;3.13;;
1410;SDS011;700;51.906;8.404;2023-07-13T15:48:41;5.07;;;2.97;;
1410;SDS011;700;51.906;8.404;2023-07-13T15:53:45;4.50;;;3.73;;
1410;SDS011;700;51.906;8.404;2023-07-13T15:58:49;3.60;;;3.03;;
1410;SDS011;700;51.906;8.404;2023-07-13T16:03:50;5.10;;;3.10;;
1410;SDS011;700;51.906;8.404;2023-07-13T16:08:53;4.20;;;3.10;;
1410;SDS011;700;51.906;8.404;2023-07-13T16:13:54;3.23;;;2.93;;
1410;SDS011;700;51.906;8.404;2023-07-13T16:19:02;4.83;;;3.17;;
1410;SDS011;700;51.906;8.404;2023-07-13T16:24:04;4.53;;;3.33;;
1410;SDS011;700;51.906;8.404;2023-07-13T16:29:15;4.20;;;3.60;;
1410;SDS011;700;51.906;8.404;2023-07-13T16:34:20;5.17;;;2.73;;
1410;SDS011;700;51.906;8.404;2023-07-13T16:39:25;2.37;;;1.90;;
1410;SDS011;700;51.906;8.404;2023-07-13T16:44:32;3.70;;;2.00;;
1410;SDS011;700;51.906;8.404;2023-07-13T16:49:33;3.03;;;2.30;;
1410;SDS011;700;51.906;8.404;2023-07-13T16:54:39;2.40;;;2.00;;
1410;SDS011;700;51.906;8.404;2023-07-13T16:59:41;2.77;;;1.80;;
1410;SDS011;700;51.906;8.404;2023-07-13T17:04:45;2.90;;;2.20;;
1410;SDS011;700;51.906;8.404;2023-07-13T17:09:47;2.83;;;1.80;;
1410;SDS011;700;51.906;8.404;2023-07-13T17:14:48;2.87;;;2.37;;
1410;SDS011;700;51.906;8.404;2023-07-13T17:19:49;5.20;;;2.10;;
1410;SDS011;700;51.906;8.404;2023-07-13T17:24:53;4.73;;;2.20;;
1410;SDS011;700;51.906;8.404;2023-07-13T17:29:54;4.93;;;2.83;;
1410;SDS011;700;51.906;8.404;2023-07-13T17:34:57;3.50;;;2.80;;
1410;SDS011;700;51.906;8.404;2023-07-13T17:39:58;4.23;;;3.10;;
1410;SDS011;700;51.906;8.404;2023-07-13T17:45:00;3.57;;;2.90;;
1410;SDS011;700;51.906;8.404;2023-07-13T17:50:04;5.30;;;3.80;;
1410;SDS011;700;51.906;8.404;2023-07-13T17:55:13;4.03;;;3.63;;
1410;SDS011;700;51.906;8.404;2023-07-13T18:00:18;4.67;;;3.93;;
1410;SDS011;700;51.906;8.404;2023-07-13T18:05:35;5.03;;;3.90;;
1410;SDS011;700;51.906;8.404;2023-07-13T18:10:37;5.03;;;4.20;;
1410;SDS011;700;51.906;8.404;2023-07-13T18:15:38;5.10;;;4.60;;
1410;SDS011;700;51.906;8.404;2023-07-13T18:20:39;5.57;;;4.33;;
1410;SDS011;700;51.906;8.404;2023-07-13T18:25:44;4.73;;;4.33;;
1410;SDS011;700;51.906;8.404;2023-07-13T18:30:49;7.87;;;5.00;;
1410;SDS011;700;51.906;8.404;2023-07-13T18:35:53;6.60;;;4.60;;
1410;SDS011;700;51.906;8.404;2023-07-13T18:40:54;5.90;;;5.20;;
1410;SDS011;700;51.906;8.404;2023-07-13T18:45:56;8.30;;;5.67;;
1410;SDS011;700;51.906;8.404;2023-07-13T18:50:59;7.27;;;5.20;;
1410;SDS011;700;51.906;8.404;2023-07-13T18:56:00;6.60;;;5.90;;
1410;SDS011;700;51.906;8.404;2023-07-13T19:01:01;10.70;;;6.40;;
1410;SDS011;700;51.906;8.404;2023-07-13T19:06:03;7.93;;;5.60;;
1410;SDS011;700;51.906;8.404;2023-07-13T19:11:08;6.17;;;5.57;;
1410;SDS011;700;51.906;8.404;2023-07-13T19:16:20;6.70;;;5.57;;
1410;SDS011;700;51.906;8.404;2023-07-13T19:26:28;9.20;;;6.90;;
1410;SDS011;700;51.906;8.404;2023-07-13T19:31:35;10.03;;;5.27;;
1410;SDS011;700;51.906;8.404;2023-07-13T19:36:39;7.47;;;4.87;;
1410;SDS011;700;51.906;8.404;2023-07-13T19:41:39;5.90;;;4.90;;
1410;SDS011;700;51.906;8.404;2023-07-13T19:46:43;4.83;;;4.43;;
1410;SDS011;700;51.906;8.404;2023-07-13T19:51:46;5.73;;;5.23;;
1410;SDS011;700;51.906;8.404;2023-07-13T19:56:47;6.13;;;5.43;;
1410;SDS011;700;51.906;8.404;2023-07-13T20:01:52;5.53;;;4.83;;
1410;SDS011;700;51.906;8.404;2023-07-13T20:06:53;10.20;;;5.93;;
1410;SDS011;700;51.906;8.404;2023-07-13T20:11:56;5.47;;;4.90;;
1410;SDS011;700;51.906;8.404;2023-07-13T20:17:02;5.67;;;4.70;;
1410;SDS011;700;51.906;8.404;2023-07-13T20:22:07;7.30;;;5.00;;
1410;SDS011;700;51.906;8.404;2023-07-13T20:27:11;5.93;;;5.23;;
1410;SDS011;700;51.906;8.404;2023-07-13T20:32:14;5.80;;;4.60;;
1410;SDS011;700;51.906;8.404;2023-07-13T20:37:29;4.70;;;4.10;;
1410;SDS011;700;51.906;8.404;2023-07-13T20:42:36;5.90;;;4.40;;
1410;SDS011;700;51.906;8.404;2023-07-13T20:47:36;4.20;;;3.80;;
1410;SDS011;700;51.906;8.404;2023-07-13T20:52:38;7.43;;;4.93;;
1410;SDS011;700;51.906;8.404;2023-07-13T20:57:39;8.20;;;4.80;;
1410;SDS011;700;51.906;8.404;2023-07-13T21:02:40;6.27;;;4.57;;
1410;SDS011;700;51.906;8.404;2023-07-13T21:07:41;7.37;;;4.40;;
1410;SDS011;700;51.906;8.404;2023-07-13T21:12:44;8.47;;;6.60;;
1410;SDS011;700;51.906;8.404;2023-07-13T21:17:46;6.37;;;5.73;;
1410;SDS011;700;51.906;8.404;2023-07-13T21:22:49;8.80;;;6.20;;
1410;SDS011;700;51.906;8.404;2023-07-13T21:27:51;7.50;;;5.90;;
1410;SDS011;700;51.906;8.404;2023-07-13T21:32:55;9.00;;;5.50;;
1410;SDS011;700;51.906;8.404;2023-07-13T21:37:59;5.93;;;5.33;;
1410;SDS011;700;51.906;8.404;2023-07-13T21:43:01;5.80;;;5.30;;
1410;SDS011;700;51.906;8.404;2023-07-13T21:48:04;6.90;;;6.10;;
1410;SDS011;700;51.906;8.404;2023-07-13T21:53:14;8.23;;;5.90;;
1410;SDS011;700;51.906;8.404;2023-07-13T21:58:32;9.17;;;6.37;;
1410;SDS011;700;51.906;8.404;2023-07-13T22:03:34;7.67;;;5.50;;
1410;SDS011;700;51.906;8.404;2023-07-13T22:08:39;6.63;;;5.97;;
1410;SDS011;700;51.906;8.404;2023-07-13T22:13:40;8.73;;;5.57;;
1410;SDS011;700;51.906;8.404;2023-07-13T22:18:42;6.50;;;5.90;;
1410;SDS011;700;51.906;8.404;2023-07-13T22:23:43;8.43;;;6.90;;
1410;SDS011;700;51.906;8.404;2023-07-13T22:28:45;8.50;;;6.50;;
1410;SDS011;700;51.906;8.404;2023-07-13T22:33:47;7.43;;;6.53;;
1410;SDS011;700;51.906;8.404;2023-07-13T22:38:48;7.63;;;6.83;;
1410;SDS011;700;51.906;8.404;2023-07-13T22:43:49;8.03;;;6.23;;
1410;SDS011;700;51.906;8.404;2023-07-13T22:48:55;10.37;;;6.50;;
1410;SDS011;700;51.906;8.404;2023-07-13T22:53:56;7.40;;;6.70;;
1410;SDS011;700;51.906;8.404;2023-07-13T22:58:57;7.07;;;6.37;;
1410;SDS011;700;51.906;8.404;2023-07-13T23:03:58;9.50;;;7.77;;
1410;SDS011;700;51.906;8.404;2023-07-13T23:09:00;9.27;;;6.87;;
1410;SDS011;700;51.906;8.404;2023-07-13T23:14:02;8.03;;;7.27;;
1410;SDS011;700;51.906;8.404;2023-07-13T23:19:05;8.37;;;7.27;;
1410;SDS011;700;51.906;8.404;2023-07-13T23:24:20;9.53;;;7.17;;
1410;SDS011;700;51.906;8.404;2023-07-13T23:29:25;8.23;;;7.40;;
1410;SDS011;700;51.906;8.404;2023-07-13T23:34:26;7.27;;;6.67;;
1410;SDS011;700;51.906;8.404;2023-07-13T23:39:30;7.83;;;7.03;;
1410;SDS011;700;51.906;8.404;2023-07-13T23:44:30;8.50;;;7.50;;
1410;SDS011;700;51.906;8.404;2023-07-13T23:49:33;8.63;;;7.67;;
1410;SDS011;700;51.906;8.404;2023-07-13T23:54:34;9.00;;;7.80;;
1410;SDS011;700;51.906;8.404;2023-07-13T23:59:34;8.70;;;7.30;;
